Time;durP1;ratioP1;P1;durP2;ratioP2;P2;SDS_P1;SDS_P2;PMS_P1;PMS_P2;Temp;Humidity;BMP_temperature;BMP_pressure;BME280_temperature;BME280_humidity;BME280_pressure;Samples;Min_cycle;Max_cycle;Signal;HPM_P1;HPM_P2
2021/12/19 00:09:24;;;;;;;0.00;0.00;;;3.40;67.30;;;;;;4992955;28;20107;-78
2021/12/19 00:11:50;;;;;;;0.00;0.00;;;3.30;67.30;;;;;;4993131;28;20542;-81
2021/12/19 00:14:18;;;;;;;0.00;0.00;;;3.30;67.40;;;;;;4994828;28;20026;-78
2021/12/19 00:16:43;;;;;;;0.00;0.00;;;3.30;67.60;;;;;;4995992;28;20040;-78
2021/12/19 00:19:09;;;;;;;0.00;0.00;;;3.30;67.60;;;;;;4998491;28;20023;-77
2021/12/19 00:21:35;;;;;;;0.00;0.00;;;3.30;67.90;;;;;;4998069;28;20121;-78
2021/12/19 00:24:02;;;;;;;0.00;0.00;;;3.30;67.90;;;;;;4997580;28;20030;-77
2021/12/19 00:26:28;;;;;;;0.00;0.00;;;3.30;67.90;;;;;;4998225;28;20026;-78
2021/12/19 00:28:54;;;;;;;0.00;0.00;;;3.30;68.00;;;;;;4997143;28;20119;-77
2021/12/19 00:31:20;;;;;;;0.00;0.00;;;3.30;68.00;;;;;;4997362;28;20039;-78
2021/12/19 00:33:46;;;;;;;0.00;0.00;;;3.30;68.10;;;;;;4997332;28;20032;-88
2021/12/19 00:36:12;;;;;;;0.00;0.00;;;3.30;68.20;;;;;;4996305;28;20034;-78
2021/12/19 00:38:38;;;;;;;0.00;0.00;;;3.20;68.40;;;;;;4997807;28;20053;-77
2021/12/19 00:41:05;;;;;;;0.00;0.00;;;3.20;68.60;;;;;;4997326;28;20055;-77
2021/12/19 00:43:36;;;;;;;0.00;0.00;;;3.30;68.60;;;;;;4997084;28;20033;-78
2021/12/19 00:46:07;;;;;;;0.00;0.00;;;3.20;68.70;;;;;;4997191;28;20034;-78
2021/12/19 00:48:35;;;;;;;0.00;0.00;;;3.20;68.80;;;;;;4996940;28;20463;-77
2021/12/19 00:51:00;;;;;;;0.00;0.00;;;3.20;69.00;;;;;;4997267;28;20030;-77
2021/12/19 00:53:26;;;;;;;0.00;0.00;;;3.20;69.10;;;;;;4997450;28;20364;-78
2021/12/19 00:55:52;;;;;;;0.00;0.00;;;3.20;69.10;;;;;;4997683;28;20031;-78
2021/12/19 00:58:18;;;;;;;0.00;0.00;;;3.20;69.20;;;;;;4996568;28;20034;-78
2021/12/19 01:00:44;;;;;;;0.00;0.00;;;3.20;69.40;;;;;;4997118;28;20037;-77
2021/12/19 01:03:09;;;;;;;0.00;0.00;;;3.20;69.80;;;;;;4997380;28;20031;-78
2021/12/19 01:05:38;;;;;;;0.00;0.00;;;3.20;70.10;;;;;;4996886;28;20053;-77
2021/12/19 01:08:05;;;;;;;0.00;0.00;;;3.20;70.10;;;;;;4996880;28;20508;-78
2021/12/19 01:10:32;;;;;;;0.00;0.00;;;3.20;70.10;;;;;;4996765;28;20030;-77
2021/12/19 01:12:57;;;;;;;0.00;0.00;;;3.20;70.00;;;;;;4996532;28;20042;-78
2021/12/19 01:15:23;;;;;;;0.00;0.00;;;3.20;70.00;;;;;;4997004;28;20479;-77
2021/12/19 01:17:50;;;;;;;0.00;0.00;;;3.20;70.10;;;;;;4996773;28;20094;-78
2021/12/19 01:20:24;;;;;;;0.00;0.00;;;3.20;70.20;;;;;;4996798;28;20030;-78
2021/12/19 01:22:51;;;;;;;0.00;0.00;;;3.20;70.20;;;;;;4995812;28;20022;-77
2021/12/19 01:25:17;;;;;;;0.00;0.00;;;3.30;70.30;;;;;;4997396;28;20110;-78
2021/12/19 01:27:43;;;;;;;0.00;0.00;;;3.20;70.30;;;;;;4996280;28;20050;-78
2021/12/19 01:30:10;;;;;;;0.00;0.00;;;3.20;70.40;;;;;;4979398;28;20080;-76
2021/12/19 01:32:37;;;;;;;0.00;0.00;;;3.30;70.60;;;;;;4996576;28;20034;-78
2021/12/19 01:35:04;;;;;;;0.00;0.00;;;3.20;70.60;;;;;;4996490;28;20470;-78
2021/12/19 01:37:30;;;;;;;0.00;0.00;;;3.30;70.60;;;;;;4996864;28;20027;-78
2021/12/19 01:39:56;;;;;;;0.00;0.00;;;3.20;70.60;;;;;;4995300;28;20513;-77
2021/12/19 01:42:30;;;;;;;0.00;0.00;;;3.20;70.80;;;;;;4995416;28;20081;-77
2021/12/19 01:44:56;;;;;;;0.00;0.00;;;3.20;70.90;;;;;;4996619;28;20394;-77
2021/12/19 01:47:22;;;;;;;0.00;0.00;;;3.20;71.10;;;;;;4996229;28;20027;-78
2021/12/19 01:49:48;;;;;;;0.00;0.00;;;3.20;71.10;;;;;;4995573;28;20046;-77
2021/12/19 01:52:13;;;;;;;0.00;0.00;;;3.20;71.50;;;;;;4995872;28;20027;-77
2021/12/19 01:54:39;;;;;;;0.00;0.00;;;3.20;71.70;;;;;;4996753;28;20466;-78
2021/12/19 01:57:05;;;;;;;0.00;0.00;;;3.10;71.70;;;;;;4995344;28;20478;-77
2021/12/19 01:59:30;;;;;;;0.00;0.00;;;3.10;71.70;;;;;;4996654;28;20022;-77
2021/12/19 02:01:57;;;;;;;0.00;0.00;;;3.20;71.80;;;;;;4996835;28;20400;-77
2021/12/19 02:04:23;;;;;;;0.00;0.00;;;3.20;71.90;;;;;;4997048;28;20026;-78
2021/12/19 02:06:49;;;;;;;0.00;0.00;;;3.10;72.10;;;;;;4994835;28;20025;-77
2021/12/19 02:09:17;;;;;;;0.00;0.00;;;3.20;72.30;;;;;;4996573;28;20105;-77
2021/12/19 02:11:43;;;;;;;0.00;0.00;;;3.20;72.50;;;;;;4994727;28;20089;-78
2021/12/19 02:14:10;;;;;;;0.00;0.00;;;3.10;72.70;;;;;;4996886;28;20026;-77
2021/12/19 02:16:38;;;;;;;0.00;0.00;;;3.10;72.90;;;;;;4996559;28;20076;-77
2021/12/19 02:19:06;;;;;;;0.00;0.00;;;3.10;73.10;;;;;;4979275;28;20037;-78
2021/12/19 02:21:31;;;;;;;0.00;0.00;;;3.10;73.30;;;;;;4994935;28;20089;-77
2021/12/19 02:23:59;;;;;;;0.00;0.00;;;3.10;73.50;;;;;;4996115;28;20474;-77
2021/12/19 02:26:24;;;;;;;0.00;0.00;;;3.00;73.50;;;;;;4995375;28;20088;-77
2021/12/19 02:28:50;;;;;;;0.00;0.00;;;3.00;73.70;;;;;;4995712;28;20125;-77
2021/12/19 02:31:16;;;;;;;0.00;0.00;;;3.00;73.80;;;;;;4996401;28;20459;-79
2021/12/19 02:33:53;;;;;;;0.00;0.00;;;3.00;74.10;;;;;;4995391;28;20035;-77
2021/12/19 02:36:27;;;;;;;0.00;0.00;;;3.00;74.30;;;;;;4995663;28;20102;-77
2021/12/19 02:50:00;;;;;;;0.00;0.00;;;3.00;75.30;;;;;;4995742;28;20445;-78
2021/12/19 02:52:26;;;;;;;0.00;0.00;;;2.90;75.80;;;;;;4995746;28;20030;-77
2021/12/19 02:54:51;;;;;;;0.00;0.00;;;3.00;75.80;;;;;;4994718;28;20030;-76
2021/12/19 02:57:17;;;;;;;0.00;0.00;;;3.00;76.00;;;;;;4995957;28;20035;-77
2021/12/19 02:59:43;;;;;;;0.00;0.00;;;2.90;75.90;;;;;;4995610;28;20497;-78
2021/12/19 03:02:08;;;;;;;0.00;0.00;;;3.00;76.00;;;;;;4994095;28;20030;-77
2021/12/19 03:04:34;;;;;;;0.00;0.00;;;3.00;76.10;;;;;;4996254;28;20030;-77
2021/12/19 03:07:00;;;;;;;0.00;0.00;;;3.00;76.20;;;;;;4995813;28;20026;-78
2021/12/19 03:20:02;;;;;;;0.00;0.00;;;3.10;76.50;;;;;;4995741;28;20750;-78
2021/12/19 03:22:27;;;;;;;0.00;0.00;;;3.20;76.80;;;;;;5010873;28;20108;-78
2021/12/19 03:24:53;;;;;;;0.00;0.00;;;3.20;76.80;;;;;;4994707;28;20475;-77
2021/12/19 03:27:19;;;;;;;0.00;0.00;;;3.10;76.60;;;;;;4994412;28;20489;-77
2021/12/19 03:29:44;;;;;;;0.00;0.00;;;3.20;76.70;;;;;;4995638;28;20056;-78
2021/12/19 03:32:10;;;;;;;0.00;0.00;;;3.20;76.70;;;;;;4995650;28;20031;-77
2021/12/19 03:34:36;;;;;;;0.00;0.00;;;3.20;76.80;;;;;;4996110;28;20026;-78
2021/12/19 03:37:02;;;;;;;0.00;0.00;;;3.30;76.70;;;;;;4996282;28;20109;-78
2021/12/19 03:39:37;;;;;;;0.00;0.00;;;3.30;76.70;;;;;;4994322;28;20389;-77
2021/12/19 03:42:04;;;;;;;0.00;0.00;;;3.30;76.70;;;;;;4994121;28;20026;-78
2021/12/19 03:44:30;;;;;;;0.00;0.00;;;3.30;76.80;;;;;;4994282;28;20052;-77
2021/12/19 03:46:56;;;;;;;0.00;0.00;;;3.30;76.80;;;;;;4994325;28;20022;-77
2021/12/19 03:49:21;;;;;;;0.00;0.00;;;3.30;76.80;;;;;;4995883;28;20022;-78
2021/12/19 03:51:48;;;;;;;0.00;0.00;;;3.40;76.80;;;;;;4997579;28;20038;-78
2021/12/19 03:54:14;;;;;;;0.00;0.00;;;3.40;76.90;;;;;;4999272;28;20418;-77
2021/12/19 03:56:40;;;;;;;0.00;0.00;;;3.40;76.90;;;;;;4999516;28;20022;-78
2021/12/19 03:59:06;;;;;;;0.00;0.00;;;3.40;77.10;;;;;;4998731;28;20411;-77
2021/12/19 04:01:31;;;;;;;0.00;0.00;;;3.40;77.10;;;;;;4999454;28;20030;-77
2021/12/19 04:03:58;;;;;;;0.00;0.00;;;3.40;76.90;;;;;;4999021;28;20369;-78
2021/12/19 04:06:25;;;;;;;0.00;0.00;;;3.50;77.00;;;;;;4998860;28;20473;-77
2021/12/19 04:08:51;;;;;;;0.00;0.00;;;3.50;77.00;;;;;;4998608;28;20054;-78
2021/12/19 04:11:16;;;;;;;0.00;0.00;;;3.50;77.00;;;;;;4998382;28;20116;-78
2021/12/19 04:13:42;;;;;;;0.00;0.00;;;3.50;77.00;;;;;;4998292;28;20125;-77
2021/12/19 04:16:08;;;;;;;0.00;0.00;;;3.50;76.90;;;;;;4998703;28;20102;-78
2021/12/19 04:18:34;;;;;;;0.00;0.00;;;3.60;76.90;;;;;;4997712;28;20037;-77
2021/12/19 04:20:59;;;;;;;0.00;0.00;;;3.50;77.00;;;;;;4998473;28;20033;-78
2021/12/19 04:23:30;;;;;;;0.00;0.00;;;3.50;76.90;;;;;;4998485;28;20022;-78
2021/12/19 04:25:56;;;;;;;0.00;0.00;;;3.60;77.10;;;;;;4997298;28;20065;-79
2021/12/19 04:28:22;;;;;;;0.00;0.00;;;3.60;77.20;;;;;;4997809;28;20054;-78
2021/12/19 04:30:48;;;;;;;0.00;0.00;;;3.60;77.20;;;;;;4997626;28;20552;-77
2021/12/19 04:33:16;;;;;;;0.00;0.00;;;3.60;77.30;;;;;;4996745;28;20050;-78
2021/12/19 04:35:44;;;;;;;0.00;0.00;;;3.60;77.30;;;;;;4998069;28;20046;-78
2021/12/19 04:41:35;;;;;;;0.00;0.00;;;3.60;77.30;;;;;;4987297;28;20066;-83
2021/12/19 04:53:16;;;;;;;0.00;0.00;;;3.60;77.50;;;;;;4997131;28;20033;-83
2021/12/19 05:00:32;;;;;;;0.00;0.00;;;3.60;77.40;;;;;;4997640;28;20030;-78
2021/12/19 05:03:04;;;;;;;0.00;0.00;;;3.60;77.30;;;;;;4996620;28;20073;-78
2021/12/19 05:05:53;;;;;;;0.00;0.00;;;3.60;77.40;;;;;;4997898;28;20058;-78
2021/12/19 05:14:08;;;;;;;0.00;0.00;;;3.60;77.60;;;;;;4997598;28;20414;-78
2021/12/19 05:16:38;;;;;;;0.00;0.00;;;3.60;77.40;;;;;;4997624;28;20022;-78
2021/12/19 05:19:06;;;;;;;0.00;0.00;;;3.60;77.70;;;;;;4996796;28;20093;-79
2021/12/19 05:21:35;;;;;;;0.00;0.00;;;3.60;77.60;;;;;;4995874;28;20394;-78
2021/12/19 05:26:26;;;;;;;0.00;0.00;;;3.60;77.70;;;;;;4996825;28;20112;-78
2021/12/19 05:28:52;;;;;;;0.00;0.00;;;3.60;77.60;;;;;;4996786;28;20053;-77
2021/12/19 05:31:21;;;;;;;0.00;0.00;;;3.60;77.80;;;;;;4994919;28;20092;-77
2021/12/19 05:33:47;;;;;;;0.00;0.00;;;3.70;77.90;;;;;;4996266;28;20046;-78
2021/12/19 05:46:57;;;;;;;0.00;0.00;;;3.70;77.80;;;;;;4996061;28;20525;-75
2021/12/19 05:49:23;;;;;;;0.00;0.00;;;3.70;78.00;;;;;;4994662;28;20369;-77
2021/12/19 05:51:49;;;;;;;0.00;0.00;;;3.70;78.00;;;;;;4995649;28;20089;-79
2021/12/19 05:54:15;;;;;;;0.00;0.00;;;3.70;78.20;;;;;;4994835;28;20030;-79
2021/12/19 05:56:41;;;;;;;0.00;0.00;;;3.70;78.20;;;;;;4996043;28;20030;-79
2021/12/19 05:59:08;;;;;;;0.00;0.00;;;3.70;78.20;;;;;;4995563;28;20037;-78
2021/12/19 06:01:34;;;;;;;0.00;0.00;;;3.70;78.20;;;;;;4990637;28;20018;-79
2021/12/19 06:04:00;;;;;;;0.00;0.00;;;3.70;78.60;;;;;;4989411;28;20166;-78
2021/12/19 06:06:26;;;;;;;0.00;0.00;;;3.70;78.70;;;;;;4995777;28;20022;-79
2021/12/19 06:08:55;;;;;;;0.00;0.00;;;3.60;78.70;;;;;;4995379;28;20042;-78
2021/12/19 06:11:21;;;;;;;0.00;0.00;;;3.60;78.80;;;;;;4995593;28;20053;-77
2021/12/19 06:13:46;;;;;;;0.00;0.00;;;3.70;79.50;;;;;;4996427;28;20038;-78
2021/12/19 06:16:12;;;;;;;0.00;0.00;;;3.60;78.90;;;;;;4995749;28;20054;-77
2021/12/19 06:18:38;;;;;;;0.00;0.00;;;3.60;79.20;;;;;;4995867;28;20112;-79
2021/12/19 06:21:05;;;;;;;0.00;0.00;;;3.70;79.40;;;;;;4995696;28;20041;-77
2021/12/19 06:23:32;;;;;;;0.00;0.00;;;3.70;79.20;;;;;;4994210;28;20035;-77
2021/12/19 06:25:57;;;;;;;0.00;0.00;;;3.70;79.20;;;;;;4993501;28;20065;-78
2021/12/19 06:28:23;;;;;;;0.00;0.00;;;3.70;79.30;;;;;;4995081;28;20097;-78
2021/12/19 06:30:49;;;;;;;0.00;0.00;;;3.70;79.40;;;;;;4994183;28;20061;-78
2021/12/19 06:33:15;;;;;;;0.00;0.00;;;3.70;79.40;;;;;;4995425;28;20041;-77
2021/12/19 06:35:41;;;;;;;0.00;0.00;;;3.80;79.40;;;;;;4994266;28;20023;-78
2021/12/19 06:38:07;;;;;;;0.00;0.00;;;3.80;79.30;;;;;;4995385;28;20459;-78
2021/12/19 06:40:33;;;;;;;0.00;0.00;;;3.80;79.30;;;;;;4993939;28;20031;-80
2021/12/19 06:42:59;;;;;;;0.00;0.00;;;3.80;79.20;;;;;;4994366;28;20054;-79
2021/12/19 06:45:25;;;;;;;0.00;0.00;;;3.80;79.30;;;;;;4991307;28;20026;-78
2021/12/19 06:47:52;;;;;;;0.00;0.00;;;3.90;79.30;;;;;;4986041;28;20463;-79
2021/12/19 06:50:19;;;;;;;0.00;0.00;;;3.80;79.20;;;;;;4987127;28;20101;-79
2021/12/19 06:52:47;;;;;;;0.00;0.00;;;3.90;79.20;;;;;;4981686;28;20114;-78
2021/12/19 06:55:14;;;;;;;0.00;0.00;;;3.90;79.10;;;;;;4988060;28;20085;-78
2021/12/19 06:57:40;;;;;;;0.00;0.00;;;3.90;79.30;;;;;;4984246;28;20165;-77
2021/12/19 07:00:10;;;;;;;0.00;0.00;;;4.00;79.30;;;;;;4982503;28;20070;-77
2021/12/19 07:02:35;;;;;;;0.00;0.00;;;4.00;79.10;;;;;;4987590;28;20053;-79
2021/12/19 07:05:02;;;;;;;0.00;0.00;;;4.10;79.00;;;;;;4987265;28;20022;-78
2021/12/19 07:07:27;;;;;;;0.00;0.00;;;4.10;78.80;;;;;;4973699;28;20039;-78
2021/12/19 07:09:53;;;;;;;0.00;0.00;;;4.10;78.80;;;;;;4988978;28;20089;-77
2021/12/19 07:12:19;;;;;;;0.00;0.00;;;4.10;78.70;;;;;;4994888;28;20027;-79
2021/12/19 07:14:46;;;;;;;0.00;0.00;;;4.10;78.60;;;;;;4995076;28;20050;-78
2021/12/19 07:17:12;;;;;;;0.00;0.00;;;4.10;78.70;;;;;;4994776;28;20027;-78
2021/12/19 07:19:38;;;;;;;0.00;0.00;;;4.10;78.70;;;;;;4994779;28;20031;-78
2021/12/19 07:22:04;;;;;;;0.00;0.00;;;4.10;78.70;;;;;;4993808;28;20032;-77
2021/12/19 07:24:30;;;;;;;0.00;0.00;;;4.20;78.90;;;;;;4994813;28;20026;-78
2021/12/19 07:26:55;;;;;;;0.00;0.00;;;4.20;78.80;;;;;;4994147;28;20490;-79
2021/12/19 07:29:21;;;;;;;0.00;0.00;;;4.30;78.70;;;;;;4995173;28;20050;-78
2021/12/19 07:31:47;;;;;;;0.00;0.00;;;4.30;78.50;;;;;;4993359;28;20034;-79
2021/12/19 07:34:13;;;;;;;0.00;0.00;;;4.30;78.20;;;;;;4994176;28;20035;-77
2021/12/19 07:36:43;;;;;;;0.00;0.00;;;4.30;78.20;;;;;;4993388;28;20054;-78
2021/12/19 07:39:21;;;;;;;0.00;0.00;;;4.40;78.00;;;;;;4994017;28;20130;-78
2021/12/19 07:41:47;;;;;;;0.00;0.00;;;4.40;78.10;;;;;;4994561;28;20121;-79
2021/12/19 07:44:12;;;;;;;0.00;0.00;;;4.40;78.20;;;;;;4994317;28;20101;-81
2021/12/19 07:46:38;;;;;;;0.00;0.00;;;4.40;78.10;;;;;;4994350;28;20030;-78
2021/12/19 07:49:04;;;;;;;0.00;0.00;;;4.40;78.00;;;;;;4994254;28;20382;-78
2021/12/19 07:51:30;;;;;;;0.00;0.00;;;4.40;78.00;;;;;;4994248;28;20069;-78
2021/12/19 07:53:55;;;;;;;0.00;0.00;;;4.50;77.80;;;;;;4994064;28;20203;-79
2021/12/19 07:56:21;;;;;;;0.00;0.00;;;4.50;77.80;;;;;;4992949;28;20030;-78
2021/12/19 07:58:47;;;;;;;0.00;0.00;;;4.50;77.70;;;;;;4993442;28;20041;-78
2021/12/19 08:01:12;;;;;;;0.00;0.00;;;4.50;77.70;;;;;;4994685;28;20049;-78
2021/12/19 08:03:38;;;;;;;0.00;0.00;;;4.50;77.70;;;;;;4993079;28;20037;-77
2021/12/19 08:06:04;;;;;;;0.00;0.00;;;4.50;77.80;;;;;;4994388;28;20030;-78
2021/12/19 08:08:32;;;;;;;0.00;0.00;;;4.50;77.90;;;;;;4993960;28;20052;-77
2021/12/19 08:13:43;;;;;;;0.00;0.00;;;4.50;77.90;;;;;;4992138;28;20125;-79
2021/12/19 08:16:09;;;;;;;0.00;0.00;;;4.50;77.90;;;;;;4993459;28;20526;-77
2021/12/19 08:18:35;;;;;;;0.00;0.00;;;4.60;77.90;;;;;;4993899;28;20386;-78
2021/12/19 08:21:01;;;;;;;0.00;0.00;;;4.60;77.80;;;;;;4993748;28;20038;-80
2021/12/19 08:23:27;;;;;;;0.00;0.00;;;4.60;77.80;;;;;;4993524;28;20042;-79
2021/12/19 08:25:53;;;;;;;0.00;0.00;;;4.60;77.70;;;;;;4993832;28;20054;-77
2021/12/19 08:28:19;;;;;;;0.00;0.00;;;4.60;77.80;;;;;;4993843;28;20082;-79
2021/12/19 08:30:44;;;;;;;0.00;0.00;;;4.70;78.00;;;;;;4987663;28;20030;-79
2021/12/19 08:33:10;;;;;;;0.00;0.00;;;4.70;78.00;;;;;;4982480;28;20081;-79
2021/12/19 08:35:37;;;;;;;0.00;0.00;;;4.70;78.00;;;;;;4980826;28;20389;-78
2021/12/19 08:38:03;;;;;;;0.00;0.00;;;4.80;77.80;;;;;;4980199;28;20030;-81
2021/12/19 08:40:29;;;;;;;0.00;0.00;;;4.80;77.90;;;;;;4989801;28;20027;-78
2021/12/19 08:42:57;;;;;;;0.00;0.00;;;4.80;78.00;;;;;;4984962;28;20375;-77
2021/12/19 08:45:23;;;;;;;0.00;0.00;;;4.80;78.10;;;;;;4984089;28;20598;-79
2021/12/19 08:47:49;;;;;;;0.00;0.00;;;4.80;78.00;;;;;;4988355;28;20360;-78
2021/12/19 08:50:23;;;;;;;0.00;0.00;;;4.80;77.90;;;;;;4988776;28;20038;-78
2021/12/19 08:52:55;;;;;;;0.00;0.00;;;4.70;78.00;;;;;;4986786;28;20035;-78
2021/12/19 08:55:21;;;;;;;0.00;0.00;;;4.70;78.30;;;;;;4984617;28;20038;-78
2021/12/19 08:57:47;;;;;;;0.00;0.00;;;4.70;78.20;;;;;;4983379;28;20085;-78
2021/12/19 09:00:14;;;;;;;0.00;0.00;;;4.60;78.20;;;;;;4986522;28;20038;-82
2021/12/19 09:02:45;;;;;;;0.00;0.00;;;4.60;78.60;;;;;;4985679;28;20049;-77
2021/12/19 09:08:57;;;;;;;0.00;0.00;;;4.60;79.00;;;;;;4986806;28;20029;-78
2021/12/19 09:11:23;;;;;;;0.00;0.00;;;4.50;79.00;;;;;;4989941;28;20030;-83
2021/12/19 09:13:49;;;;;;;0.00;0.00;;;4.50;79.30;;;;;;4983135;28;20026;-78
2021/12/19 09:16:15;;;;;;;0.00;0.00;;;4.50;79.60;;;;;;4990107;28;20455;-79
2021/12/19 09:18:42;;;;;;;0.00;0.00;;;4.50;79.80;;;;;;4987079;28;20035;-79
2021/12/19 09:21:08;;;;;;;0.00;0.00;;;4.50;80.00;;;;;;4986951;28;20084;-79
2021/12/19 09:23:34;;;;;;;0.00;0.00;;;4.50;80.10;;;;;;4977118;28;20110;-79
2021/12/19 09:26:01;;;;;;;0.00;0.00;;;4.50;80.10;;;;;;4990338;28;20035;-79
2021/12/19 09:28:27;;;;;;;0.00;0.00;;;4.50;80.00;;;;;;4996222;28;20053;-79
2021/12/19 09:30:52;;;;;;;0.00;0.00;;;4.50;80.10;;;;;;4995873;28;20030;-78
2021/12/19 09:33:30;;;;;;;0.00;0.00;;;4.50;80.40;;;;;;4996295;28;20034;-80
2021/12/19 09:35:59;;;;;;;0.00;0.00;;;4.50;80.50;;;;;;5010522;28;20058;-79
2021/12/19 09:38:27;;;;;;;0.00;0.00;;;4.60;80.70;;;;;;4994927;28;20030;-79
2021/12/19 09:41:00;;;;;;;0.00;0.00;;;4.60;80.60;;;;;;4994873;28;20026;-79
2021/12/19 09:43:42;;;;;;;0.00;0.00;;;4.70;80.30;;;;;;4994534;28;20065;-79
2021/12/19 09:46:19;;;;;;;0.00;0.00;;;4.70;80.20;;;;;;4996312;28;20459;-78
2021/12/19 09:48:48;;;;;;;0.00;0.00;;;4.70;80.40;;;;;;4994568;28;20031;-79
2021/12/19 09:51:16;;;;;;;0.00;0.00;;;4.70;80.10;;;;;;4989478;28;20046;-78
2021/12/19 09:53:43;;;;;;;0.00;0.00;;;4.70;80.30;;;;;;4987464;28;20035;-79
2021/12/19 09:56:09;;;;;;;0.00;0.00;;;4.60;80.40;;;;;;4984855;28;20033;-79
2021/12/19 09:58:36;;;;;;;0.00;0.00;;;4.70;80.50;;;;;;4995492;28;20030;-78
2021/12/19 10:01:05;;;;;;;0.00;0.00;;;4.60;80.60;;;;;;4979145;28;20058;-79
2021/12/19 10:03:31;;;;;;;0.00;0.00;;;4.50;80.90;;;;;;4997016;28;20378;-78
2021/12/19 10:06:38;;;;;;;0.00;0.00;;;4.50;81.20;;;;;;4995634;28;20038;-79
2021/12/19 10:09:18;;;;;;;0.00;0.00;;;4.50;82.10;;;;;;4991503;28;20487;-78
2021/12/19 10:14:29;;;;;;;0.00;0.00;;;4.50;82.70;;;;;;4985367;28;20038;-91
2021/12/19 10:17:01;;;;;;;0.00;0.00;;;4.40;82.60;;;;;;4986216;28;20541;-80
2021/12/19 10:19:51;;;;;;;0.00;0.00;;;4.40;82.70;;;;;;4983667;28;20490;-80
2021/12/19 10:22:38;;;;;;;0.00;0.00;;;4.40;83.00;;;;;;4988811;28;20035;-80
2021/12/19 10:25:13;;;;;;;0.00;0.00;;;4.50;83.60;;;;;;4985908;28;20019;-79
2021/12/19 10:27:45;;;;;;;0.00;0.00;;;4.50;83.90;;;;;;4981104;28;20033;-79
2021/12/19 10:30:21;;;;;;;0.00;0.00;;;4.50;84.20;;;;;;4988574;28;20034;-79
2021/12/19 10:33:08;;;;;;;0.00;0.00;;;4.50;84.20;;;;;;4985307;28;20105;-78
2021/12/19 10:35:42;;;;;;;0.00;0.00;;;4.40;84.60;;;;;;4986031;28;20027;-80
2021/12/19 10:38:27;;;;;;;0.00;0.00;;;4.40;84.70;;;;;;4982686;28;20041;-79
2021/12/19 10:41:34;;;;;;;0.00;0.00;;;4.30;85.60;;;;;;4986014;28;20462;-78
2021/12/19 10:46:37;;;;;;;0.00;0.00;;;4.20;85.40;;;;;;4983439;28;20058;-79
2021/12/19 10:49:04;;;;;;;;;;;4.20;85.80;;;;;;4987409;28;20026;-79
2021/12/19 10:51:36;;;;;;;0.00;0.00;;;4.20;86.00;;;;;;4982883;28;20362;-82
2021/12/19 10:54:04;;;;;;;0.00;0.00;;;4.10;86.10;;;;;;4988056;28;20028;-78
2021/12/19 10:56:34;;;;;;;0.00;0.00;;;4.10;87.30;;;;;;4994673;28;20026;-77
2021/12/19 10:59:00;;;;;;;0.00;0.00;;;4.00;87.80;;;;;;4993463;28;20450;-78
2021/12/19 11:01:29;;;;;;;0.00;0.00;;;4.00;88.60;;;;;;4993692;28;20031;-78
2021/12/19 11:04:03;;;;;;;0.00;0.00;;;4.00;89.00;;;;;;4986806;28;20102;-78
2021/12/19 11:06:41;;;;;;;0.00;0.00;;;3.90;89.20;;;;;;4985622;28;20530;-80
2021/12/19 11:09:22;;;;;;;0.00;0.00;;;3.90;90.00;;;;;;4985160;28;20064;-80
2021/12/19 11:11:54;;;;;;;0.00;0.00;;;3.90;90.20;;;;;;4983708;28;20023;-79
2021/12/19 11:14:24;;;;;;;0.00;0.00;;;3.90;90.70;;;;;;4986274;28;20037;-78
2021/12/19 11:16:54;;;;;;;0.10;0.00;;;3.80;90.90;;;;;;4985260;28;20114;-78
2021/12/19 11:19:19;;;;;;;0.00;0.00;;;3.80;91.30;;;;;;4976647;28;20054;-78
2021/12/19 11:21:45;;;;;;;0.00;0.00;;;3.80;91.30;;;;;;4994423;28;20027;-78
2021/12/19 11:24:14;;;;;;;0.00;0.00;;;3.70;91.00;;;;;;4994395;28;20110;-79
2021/12/19 11:26:42;;;;;;;0.00;0.00;;;3.70;90.90;;;;;;4994458;28;20133;-79
2021/12/19 11:29:09;;;;;;;0.00;0.00;;;3.60;90.70;;;;;;4994514;28;20434;-80
2021/12/19 11:31:38;;;;;;;0.00;0.00;;;3.50;90.80;;;;;;4989931;28;20497;-80
2021/12/19 11:34:03;;;;;;;0.00;0.00;;;3.50;91.30;;;;;;4974283;28;20035;-79
2021/12/19 11:36:41;;;;;;;0.00;0.00;;;3.40;91.20;;;;;;4973808;28;20093;-78
2021/12/19 11:39:08;;;;;;;0.00;0.00;;;3.40;91.50;;;;;;4975040;28;20390;-78
2021/12/19 11:41:35;;;;;;;0.00;0.00;;;3.40;91.50;;;;;;4973281;28;20031;-80
2021/12/19 11:44:05;;;;;;;0.00;0.00;;;3.30;91.30;;;;;;4974998;28;20039;-77
2021/12/19 11:46:44;;;;;;;0.00;0.00;;;3.30;91.50;;;;;;4977632;28;20030;-77
2021/12/19 11:49:20;;;;;;;0.00;0.00;;;3.30;91.80;;;;;;4994183;28;20030;-80
2021/12/19 11:51:46;;;;;;;0.00;0.00;;;3.20;92.10;;;;;;4994092;28;20034;-78
2021/12/19 11:54:16;;;;;;;0.00;0.00;;;3.20;92.00;;;;;;4994291;28;20034;-85
2021/12/19 11:57:08;;;;;;;0.00;0.00;;;3.20;92.10;;;;;;4989316;28;20027;-79
2021/12/19 11:59:39;;;;;;;0.00;0.00;;;3.20;91.90;;;;;;4984595;28;20375;-79
2021/12/19 12:02:31;;;;;;;0.00;0.00;;;3.20;92.00;;;;;;4985996;28;20076;-78
2021/12/19 12:05:18;;;;;;;0.00;0.00;;;3.10;91.80;;;;;;4989239;28;20022;-78
2021/12/19 12:08:04;;;;;;;0.00;0.00;;;3.10;92.10;;;;;;4982529;28;20026;-78
2021/12/19 12:10:54;;;;;;;0.00;0.00;;;3.10;92.50;;;;;;4973715;28;20420;-80
2021/12/19 12:13:35;;;;;;;0.00;0.00;;;3.10;92.60;;;;;;4976483;28;20026;-81
2021/12/19 12:18:40;;;;;;;0.00;0.00;;;3.10;93.20;;;;;;4978406;28;20034;-78
2021/12/19 12:22:00;;;;;;;0.00;0.00;;;3.10;93.30;;;;;;4960921;28;20410;-79
2021/12/19 12:24:13;;;;;;;0.00;0.00;;;3.20;93.60;;;;;;4986666;28;20049;-79
2021/12/19 12:26:57;;;;;;;0.00;0.00;;;3.20;93.80;;;;;;4991233;28;20109;-79
2021/12/19 12:29:26;;;;;;;0.00;0.00;;;3.20;93.60;;;;;;4987880;28;20074;-84
2021/12/19 12:31:53;;;;;;;0.00;0.00;;;3.20;93.80;;;;;;4990086;28;20030;-80
2021/12/19 12:34:20;;;;;;;0.00;0.00;;;3.20;94.20;;;;;;4986890;28;20035;-78
2021/12/19 12:36:46;;;;;;;0.00;0.00;;;3.30;94.30;;;;;;4984105;28;20034;-78
2021/12/19 12:39:18;;;;;;;0.00;0.00;;;3.30;94.30;;;;;;4980018;28;20370;-78
2021/12/19 12:44:15;;;;;;;0.00;0.00;;;3.40;94.70;;;;;;4974480;28;20464;-80
2021/12/19 12:46:44;;;;;;;0.00;0.00;;;3.50;94.90;;;;;;4993765;28;20118;-78
2021/12/19 12:49:19;;;;;;;0.00;0.00;;;3.50;95.00;;;;;;4995475;28;20065;-78
2021/12/19 12:51:56;;;;;;;0.00;0.00;;;3.60;95.20;;;;;;4994669;28;20073;-82
2021/12/19 12:54:26;;;;;;;0.00;0.00;;;3.60;95.30;;;;;;4994293;28;20042;-78
2021/12/19 12:56:54;;;;;;;0.00;0.00;;;3.70;95.40;;;;;;4997084;28;20027;-80
2021/12/19 12:59:24;;;;;;;0.00;0.00;;;3.80;95.30;;;;;;4996572;28;20027;-80
2021/12/19 13:01:53;;;;;;;0.00;0.00;;;3.80;95.20;;;;;;4996852;28;20109;-79
2021/12/19 13:04:22;;;;;;;0.00;0.00;;;3.80;95.20;;;;;;4996778;28;20061;-79
2021/12/19 13:07:11;;;;;;;0.00;0.00;;;3.80;95.20;;;;;;4984171;28;20034;-78
2021/12/19 13:09:38;;;;;;;0.00;0.00;;;3.90;95.30;;;;;;4994056;28;20095;-80
2021/12/19 13:12:21;;;;;;;0.00;0.00;;;3.90;95.30;;;;;;4982048;28;20125;-78
2021/12/19 13:14:52;;;;;;;0.00;0.00;;;4.00;95.20;;;;;;4987495;28;20040;-77
2021/12/19 13:17:31;;;;;;;0.00;0.00;;;4.00;95.50;;;;;;4992628;28;20121;-80
2021/12/19 13:20:19;;;;;;;0.00;0.00;;;4.00;95.20;;;;;;4991718;28;20084;-79
2021/12/19 13:22:46;;;;;;;0.00;0.00;;;4.10;95.40;;;;;;4992785;28;20483;-78
2021/12/19 13:25:18;;;;;;;0.00;0.00;;;4.10;95.20;;;;;;4986394;28;20026;-79
2021/12/19 13:27:46;;;;;;;0.00;0.00;;;4.10;95.20;;;;;;4985654;28;20038;-79
2021/12/19 13:30:24;;;;;;;0.00;0.00;;;4.10;95.30;;;;;;4987215;28;20034;-80
2021/12/19 13:32:56;;;;;;;0.00;0.00;;;4.10;95.30;;;;;;4988080;28;20031;-78
2021/12/19 13:35:37;;;;;;;0.00;0.00;;;4.20;95.30;;;;;;4992379;28;20514;-79
2021/12/19 13:38:07;;;;;;;0.00;0.00;;;4.20;95.30;;;;;;4987047;28;20360;-78
2021/12/19 13:40:40;;;;;;;0.00;0.00;;;4.30;95.60;;;;;;4991997;28;20022;-78
2021/12/19 13:43:12;;;;;;;0.00;0.00;;;4.20;95.60;;;;;;4989796;28;20049;-78
2021/12/19 13:45:44;;;;;;;0.00;0.00;;;4.30;95.70;;;;;;4995459;28;20030;-79
2021/12/19 13:48:48;;;;;;;0.00;0.00;;;4.30;95.70;;;;;;4987725;28;20030;-78
2021/12/19 13:51:17;;;;;;;0.00;0.00;;;4.40;95.90;;;;;;4979705;28;20057;-78
2021/12/19 13:53:45;;;;;;;0.00;0.00;;;4.40;96.00;;;;;;4990157;28;20380;-83
2021/12/19 13:56:14;;;;;;;0.00;0.00;;;4.50;96.00;;;;;;4988147;28;20410;-82
2021/12/19 13:58:52;;;;;;;0.00;0.00;;;4.50;95.80;;;;;;4987131;28;20062;-83
2021/12/19 14:01:24;;;;;;;0.00;0.00;;;4.60;96.00;;;;;;4995920;28;20066;-91
2021/12/19 14:03:58;;;;;;;0.00;0.00;;;4.60;96.10;;;;;;4984074;28;20098;-87
2021/12/19 14:06:25;;;;;;;0.00;0.00;;;4.70;96.00;;;;;;4986903;28;20037;-88
2021/12/19 14:08:54;;;;;;;0.00;0.00;;;4.70;95.90;;;;;;4977910;28;20038;-87
2021/12/19 14:11:23;;;;;;;0.00;0.00;;;4.70;95.90;;;;;;4975018;28;20382;-87
2021/12/19 14:14:01;;;;;;;0.00;0.00;;;4.80;96.00;;;;;;4978863;28;20034;-81
2021/12/19 14:16:31;;;;;;;0.00;0.00;;;4.90;95.90;;;;;;4988076;28;20037;-82
2021/12/19 14:18:57;;;;;;;0.00;0.00;;;4.90;95.70;;;;;;4995818;28;20174;-84
2021/12/19 14:21:31;;;;;;;0.00;0.00;;;4.90;95.70;;;;;;4978788;28;20034;-83
2021/12/19 14:24:12;;;;;;;0.00;0.00;;;4.90;95.70;;;;;;4976006;28;20197;-85
2021/12/19 14:26:39;;;;;;;0.00;0.00;;;5.00;95.40;;;;;;4975677;28;20031;-79
2021/12/19 14:29:21;;;;;;;0.00;0.00;;;5.00;95.60;;;;;;4977296;28;20189;-81
2021/12/19 14:32:08;;;;;;;0.00;0.00;;;5.00;95.50;;;;;;4977945;28;20495;-83